createdAt,value
2019-03-26T00:02:12.353Z,6.13
2019-03-26T00:04:41.280Z,7.07
2019-03-26T00:07:10.116Z,11.73
2019-03-26T00:09:38.959Z,33.30
2019-03-26T00:12:08.051Z,39.33
2019-03-26T00:14:36.887Z,33.03
2019-03-26T00:17:05.732Z,31.00
2019-03-26T00:19:34.637Z,25.77
2019-03-26T00:22:11.349Z,23.87
2019-03-26T00:24:43.284Z,26.27
2019-03-26T00:27:16.664Z,24.63
2019-03-26T00:29:45.494Z,24.00
2019-03-26T00:32:14.375Z,31.17
2019-03-26T00:34:43.215Z,21.37
2019-03-26T00:37:12.057Z,18.70
2019-03-26T00:39:40.961Z,25.07
2019-03-26T00:42:09.810Z,22.13
2019-03-26T00:44:38.642Z,22.63
2019-03-26T00:47:07.551Z,26.20
2019-03-26T00:49:41.031Z,24.27
2019-03-26T00:52:09.874Z,19.77
2019-03-26T00:54:38.868Z,16.83
2019-03-26T00:57:07.704Z,18.30
2019-03-26T00:59:36.562Z,17.30
2019-03-26T01:02:05.470Z,17.30
2019-03-26T01:04:34.309Z,14.80
2019-03-26T01:07:03.169Z,18.30
2019-03-26T01:09:32.065Z,16.90
2019-03-26T01:12:00.914Z,19.83
2019-03-26T01:14:29.960Z,16.13
2019-03-26T01:16:58.831Z,17.03
2019-03-26T01:19:27.667Z,16.10
2019-03-26T01:21:56.502Z,16.27
2019-03-26T01:24:25.399Z,18.17
2019-03-26T01:26:54.252Z,16.57
2019-03-26T01:29:23.217Z,17.27
2019-03-26T01:31:52.105Z,14.60
2019-03-26T01:34:20.930Z,14.83
2019-03-26T01:36:49.762Z,14.43
2019-03-26T01:39:18.646Z,15.43
2019-03-26T01:41:47.474Z,18.47
2019-03-26T01:44:16.327Z,13.70
2019-03-26T01:46:45.221Z,15.27
2019-03-26T01:49:14.145Z,14.47
2019-03-26T01:51:45.878Z,15.23
2019-03-26T01:54:14.870Z,23.07
2019-03-26T01:56:43.786Z,19.77
2019-03-26T01:59:12.674Z,26.80
2019-03-26T02:01:41.533Z,30.87
2019-03-26T02:04:10.361Z,42.80
2019-03-26T02:06:39.206Z,47.87
2019-03-26T02:09:08.238Z,49.63
2019-03-26T02:11:37.095Z,50.17
2019-03-26T02:14:05.940Z,49.30
2019-03-26T02:16:35.719Z,50.47
2019-03-26T02:19:04.552Z,48.23
2019-03-26T02:21:33.335Z,49.47
2019-03-26T02:24:02.192Z,46.77
2019-03-26T02:26:31.055Z,49.90
2019-03-26T02:28:59.896Z,49.33
2019-03-26T02:31:28.809Z,57.20
2019-03-26T02:33:57.670Z,65.63
2019-03-26T02:36:27.990Z,57.10
2019-03-26T02:38:56.865Z,46.70
2019-03-26T02:41:25.706Z,37.07
2019-03-26T02:43:54.539Z,63.87
2019-03-26T02:46:23.423Z,55.07
2019-03-26T02:48:52.258Z,61.37
2019-03-26T02:51:21.111Z,61.10
2019-03-26T02:53:50.031Z,59.13
2019-03-26T02:56:18.869Z,58.97
2019-03-26T02:58:47.766Z,57.33
2019-03-26T03:01:16.623Z,61.23
2019-03-26T03:03:45.469Z,53.80
2019-03-26T03:06:14.295Z,56.17
2019-03-26T03:08:43.200Z,64.30
2019-03-26T03:11:12.056Z,70.47
2019-03-26T03:13:40.884Z,59.23
2019-03-26T03:16:09.813Z,71.07
2019-03-26T03:18:39.521Z,74.50
2019-03-26T03:21:08.367Z,67.63
2019-03-26T03:23:37.453Z,59.07
2019-03-26T03:26:06.278Z,58.63
2019-03-26T03:28:35.126Z,56.17
2019-03-26T03:31:04.003Z,44.50
2019-03-26T03:33:32.851Z,44.87
2019-03-26T03:36:01.697Z,29.30
2019-03-26T03:38:30.586Z,24.13
2019-03-26T03:40:59.426Z,18.27
2019-03-26T03:43:28.259Z,15.37
2019-03-26T03:45:57.143Z,12.80
2019-03-26T03:48:26.290Z,13.20
2019-03-26T03:50:56.527Z,13.80
2019-03-26T03:53:26.519Z,10.97
2019-03-26T03:55:58.656Z,12.83
2019-03-26T03:58:29.065Z,14.70
2019-03-26T04:00:57.969Z,15.60
2019-03-26T04:03:26.810Z,14.10
2019-03-26T04:06:08.222Z,10.87
2019-03-26T04:08:26.191Z,10.97
2019-03-26T04:10:55.017Z,8.10
2019-03-26T04:13:23.866Z,9.97
2019-03-26T04:15:52.751Z,12.07
2019-03-26T04:18:21.586Z,11.83
2019-03-26T04:20:50.432Z,9.73
2019-03-26T04:23:19.351Z,13.40
2019-03-26T04:25:48.194Z,11.53
2019-03-26T04:28:17.042Z,11.13
2019-03-26T04:30:45.957Z,10.20
2019-03-26T04:33:14.807Z,11.30
2019-03-26T04:35:43.739Z,12.40
2019-03-26T04:38:12.628Z,14.77
2019-03-26T04:40:41.467Z,18.30
2019-03-26T04:43:10.301Z,15.43
2019-03-26T04:45:39.212Z,16.97
2019-03-26T04:48:08.039Z,17.63
2019-03-26T04:50:36.880Z,16.43
2019-03-26T04:53:05.778Z,18.40
2019-03-26T04:55:34.807Z,18.17
2019-03-26T04:58:03.654Z,17.93
2019-03-26T05:00:32.634Z,18.57
2019-03-26T05:03:01.466Z,18.07
2019-03-26T05:05:30.314Z,13.70
2019-03-26T05:07:59.211Z,14.50
2019-03-26T05:10:28.053Z,19.73
2019-03-26T05:12:56.896Z,16.53
2019-03-26T05:15:25.798Z,19.17
2019-03-26T05:17:56.675Z,25.97
2019-03-26T05:20:25.133Z,25.60
2019-03-26T05:22:54.837Z,28.23
2019-03-26T05:25:23.681Z,25.23
2019-03-26T05:27:52.520Z,28.90
2019-03-26T05:30:21.426Z,28.90
2019-03-26T05:32:50.257Z,33.57
2019-03-26T05:35:19.108Z,32.60
2019-03-26T05:37:48.006Z,37.80
2019-03-26T05:40:16.876Z,38.70
2019-03-26T05:42:45.695Z,34.27
2019-03-26T05:45:14.968Z,31.80
2019-03-26T05:47:43.808Z,29.87
2019-03-26T05:50:13.347Z,33.53
2019-03-26T05:52:42.270Z,31.83
2019-03-26T05:55:11.417Z,34.33
2019-03-26T05:57:40.281Z,29.03
2019-03-26T06:00:13.147Z,28.50
2019-03-26T06:02:41.978Z,28.87
2019-03-26T06:05:10.825Z,29.43
2019-03-26T06:07:39.713Z,30.47
2019-03-26T06:10:09.742Z,31.43
2019-03-26T06:12:38.582Z,32.23
2019-03-26T06:15:08.515Z,28.17
2019-03-26T06:17:37.333Z,27.43
2019-03-26T06:20:07.370Z,29.60
2019-03-26T06:22:36.240Z,33.87
2019-03-26T06:25:07.788Z,24.83
2019-03-26T06:27:36.603Z,36.23
2019-03-26T06:30:08.476Z,22.47
2019-03-26T06:32:37.434Z,27.43
2019-03-26T06:35:08.576Z,24.27
2019-03-26T06:37:37.593Z,21.23
2019-03-26T06:40:08.831Z,22.57
2019-03-26T06:42:37.674Z,23.80
2019-03-26T06:45:11.089Z,25.73
2019-03-26T06:47:39.934Z,25.70
2019-03-26T06:50:10.468Z,21.30
2019-03-26T06:52:39.645Z,21.70
2019-03-26T06:55:09.476Z,18.50
2019-03-26T06:57:38.387Z,19.97
2019-03-26T07:00:10.283Z,23.50
2019-03-26T07:02:39.438Z,20.63
2019-03-26T07:05:08.787Z,20.53
2019-03-26T07:07:37.716Z,21.27
2019-03-26T07:10:08.665Z,18.20
2019-03-26T07:12:37.510Z,17.97
2019-03-26T07:15:27.168Z,23.40
2019-03-26T07:17:57.995Z,21.17
2019-03-26T07:20:26.841Z,26.63
2019-03-26T07:22:56.300Z,34.20
2019-03-26T07:25:26.030Z,20.33
2019-03-26T07:27:54.894Z,22.47
2019-03-26T07:30:40.942Z,19.30
2019-03-26T07:33:09.979Z,20.63
2019-03-26T07:35:38.914Z,20.20
2019-03-26T07:38:07.853Z,22.10
2019-03-26T07:40:36.713Z,22.37
2019-03-26T07:43:06.068Z,19.50
2019-03-26T07:45:35.159Z,10.43
2019-03-26T07:48:03.998Z,14.23
2019-03-26T07:50:32.823Z,8.77
2019-03-26T07:53:01.942Z,9.27
2019-03-26T07:55:30.740Z,8.43
2019-03-26T07:57:59.612Z,6.10
2019-03-26T08:00:33.554Z,8.47
2019-03-26T08:03:02.382Z,5.97
2019-03-26T08:05:31.223Z,6.70
2019-03-26T08:08:00.113Z,6.30
2019-03-26T08:10:28.965Z,6.13
2019-03-26T08:12:57.902Z,8.50
2019-03-26T08:15:26.845Z,7.20
2019-03-26T08:17:55.724Z,7.90
2019-03-26T08:20:24.569Z,6.23
2019-03-26T08:22:53.488Z,6.87
2019-03-26T08:25:22.315Z,6.10
2019-03-26T08:27:51.159Z,5.73
2019-03-26T08:30:20.053Z,7.30
2019-03-26T08:32:48.915Z,7.37
2019-03-26T08:35:17.748Z,7.97
2019-03-26T08:37:46.623Z,9.17
2019-03-26T08:40:15.567Z,8.00
2019-03-26T08:42:44.418Z,5.83
2019-03-26T08:45:13.533Z,6.63
2019-03-26T08:47:42.387Z,7.00
2019-03-26T08:50:11.439Z,9.50
2019-03-26T08:52:40.319Z,9.27
2019-03-26T08:55:10.349Z,9.23
2019-03-26T08:57:39.194Z,10.10
2019-03-26T09:00:10.183Z,7.67
2019-03-26T09:02:39.006Z,9.50
2019-03-26T09:05:08.441Z,7.67
2019-03-26T09:07:38.284Z,7.90
2019-03-26T09:10:09.849Z,12.47
2019-03-26T09:12:39.698Z,8.50
2019-03-26T09:15:14.236Z,7.63
2019-03-26T09:17:44.348Z,8.80
2019-03-26T09:20:13.526Z,8.43
2019-03-26T09:22:42.433Z,7.23
2019-03-26T09:25:11.468Z,6.10
2019-03-26T09:27:40.312Z,8.03
2019-03-26T09:30:11.414Z,11.90
2019-03-26T09:32:40.487Z,28.03
2019-03-26T09:35:10.117Z,9.97
2019-03-26T09:37:39.003Z,7.37
2019-03-26T09:40:09.452Z,13.30
2019-03-26T09:42:38.792Z,10.57
2019-03-26T09:45:10.005Z,9.00
2019-03-26T09:47:38.937Z,14.20
2019-03-26T09:50:12.452Z,9.87
2019-03-26T09:52:41.334Z,8.50
2019-03-26T09:55:10.788Z,6.50
2019-03-26T09:57:39.639Z,8.07
2019-03-26T10:00:10.902Z,9.00
2019-03-26T10:02:42.807Z,18.73
2019-03-26T10:05:10.329Z,8.60
2019-03-26T10:07:39.225Z,11.03
2019-03-26T10:10:08.865Z,8.47
2019-03-26T10:12:37.710Z,10.27
2019-03-26T10:15:09.969Z,10.37
2019-03-26T10:17:38.820Z,8.93
2019-03-26T10:20:08.978Z,8.80
2019-03-26T10:22:39.335Z,8.67
2019-03-26T10:25:11.272Z,8.83
2019-03-26T10:27:40.055Z,10.30
2019-03-26T10:30:11.702Z,9.03
2019-03-26T10:32:40.852Z,10.20
2019-03-26T10:35:10.989Z,7.67
2019-03-26T10:37:39.887Z,12.23
2019-03-26T10:40:09.937Z,8.87
2019-03-26T10:42:38.758Z,11.57
2019-03-26T10:45:08.161Z,9.13
2019-03-26T10:47:36.991Z,8.27
2019-03-26T10:50:07.300Z,9.10
2019-03-26T10:52:36.179Z,9.07
2019-03-26T10:55:06.340Z,7.17
2019-03-26T10:57:35.565Z,6.60
2019-03-26T11:00:06.742Z,7.23
2019-03-26T11:02:35.662Z,8.53
2019-03-26T11:05:06.640Z,9.40
2019-03-26T11:07:35.527Z,10.30
2019-03-26T11:10:07.234Z,8.17
2019-03-26T11:12:36.066Z,9.23
2019-03-26T11:15:09.427Z,6.50
2019-03-26T11:17:38.264Z,7.47
2019-03-26T11:20:07.492Z,7.13
2019-03-26T11:22:36.491Z,8.83
2019-03-26T11:25:11.812Z,7.50
2019-03-26T11:27:39.133Z,10.13
2019-03-26T11:30:08.801Z,8.87
2019-03-26T11:32:37.946Z,8.33
2019-03-26T11:35:09.003Z,6.47
2019-03-26T11:37:39.149Z,9.07
2019-03-26T11:40:09.096Z,11.27
2019-03-26T11:42:37.922Z,7.80
2019-03-26T11:45:08.703Z,15.60
2019-03-26T11:47:38.760Z,9.47
2019-03-26T11:50:08.393Z,9.20
2019-03-26T11:52:38.178Z,8.77
2019-03-26T11:55:08.729Z,9.43
2019-03-26T11:57:37.572Z,7.00
2019-03-26T12:00:09.233Z,8.40
2019-03-26T12:02:38.081Z,7.67
2019-03-26T12:05:08.430Z,9.83
2019-03-26T12:07:37.918Z,11.03
2019-03-26T12:10:08.925Z,11.53
2019-03-26T12:12:38.560Z,8.77
2019-03-26T12:15:08.678Z,7.53
2019-03-26T12:17:37.467Z,5.87
2019-03-26T12:20:08.541Z,8.03
2019-03-26T12:22:37.392Z,8.13
2019-03-26T12:25:07.237Z,8.77
2019-03-26T12:27:36.753Z,8.00
2019-03-26T12:30:10.561Z,6.33
2019-03-26T12:32:41.071Z,7.47
2019-03-26T12:35:11.717Z,9.70
2019-03-26T12:37:41.409Z,8.83
2019-03-26T12:40:10.282Z,6.53
2019-03-26T12:42:39.158Z,9.23
2019-03-26T12:45:08.300Z,10.63
2019-03-26T12:47:37.147Z,8.23
2019-03-26T12:50:07.740Z,7.43
2019-03-26T12:52:36.577Z,6.90
2019-03-26T12:55:06.406Z,7.90
2019-03-26T12:57:35.350Z,10.57
2019-03-26T13:00:05.986Z,7.90
2019-03-26T13:02:36.088Z,7.87
2019-03-26T13:05:07.094Z,6.77
2019-03-26T13:07:35.916Z,7.37
2019-03-26T13:10:13.994Z,6.70
2019-03-26T13:12:38.785Z,5.87
2019-03-26T13:15:08.424Z,8.87
2019-03-26T13:17:37.251Z,9.47
2019-03-26T13:20:07.137Z,6.33
2019-03-26T13:22:35.999Z,7.50
2019-03-26T13:25:06.846Z,7.13
2019-03-26T13:27:35.749Z,6.10
2019-03-26T13:30:06.675Z,9.27
2019-03-26T13:32:35.523Z,7.90
2019-03-26T13:35:08.949Z,7.40
2019-03-26T13:37:37.796Z,8.00
2019-03-26T13:40:07.074Z,9.10
2019-03-26T13:42:35.949Z,6.60
2019-03-26T13:45:06.592Z,6.17
2019-03-26T13:47:35.436Z,8.60
2019-03-26T13:50:07.869Z,7.87
2019-03-26T13:52:36.702Z,7.00
2019-03-26T13:55:09.326Z,9.13
2019-03-26T13:57:39.245Z,6.87
2019-03-26T14:00:10.363Z,8.20
2019-03-26T14:02:39.239Z,9.03
2019-03-26T14:05:25.445Z,6.60
2019-03-26T14:07:54.274Z,9.17
2019-03-26T14:10:23.126Z,7.93
2019-03-26T14:12:52.041Z,8.07
2019-03-26T14:15:20.899Z,6.80
2019-03-26T14:17:49.770Z,6.80
2019-03-26T14:20:19.164Z,8.10
2019-03-26T14:22:48.010Z,5.33
2019-03-26T14:25:16.847Z,5.83
2019-03-26T14:27:45.750Z,8.33
2019-03-26T14:30:15.302Z,8.80
2019-03-26T14:32:44.183Z,7.13
2019-03-26T14:35:13.192Z,7.03
2019-03-26T14:37:51.113Z,9.83
2019-03-26T14:40:12.743Z,12.23
2019-03-26T14:42:41.666Z,9.03
2019-03-26T14:45:10.632Z,9.30
2019-03-26T14:47:39.487Z,10.17
2019-03-26T14:50:08.924Z,11.93
2019-03-26T14:52:37.742Z,11.60
2019-03-26T14:55:08.188Z,10.73
2019-03-26T14:57:37.096Z,13.07
2019-03-26T15:00:07.353Z,10.47
2019-03-26T15:02:36.313Z,11.87
2019-03-26T15:05:06.922Z,9.70
2019-03-26T15:07:35.779Z,12.40
2019-03-26T15:10:06.218Z,7.50
2019-03-26T15:12:35.126Z,10.23
2019-03-26T15:15:05.162Z,7.90
2019-03-26T15:17:34.043Z,8.33
2019-03-26T15:20:03.065Z,7.23
2019-03-26T15:22:31.919Z,8.47
2019-03-26T15:25:00.761Z,8.37
2019-03-26T15:27:29.640Z,8.10
2019-03-26T15:29:58.498Z,9.13
2019-03-26T15:32:27.355Z,9.57
2019-03-26T15:34:56.244Z,10.93
2019-03-26T15:37:25.112Z,7.50
2019-03-26T15:39:54.014Z,9.40
2019-03-26T15:42:23.034Z,5.93
2019-03-26T15:44:51.898Z,7.87
2019-03-26T15:47:20.760Z,10.07
2019-03-26T15:49:49.685Z,10.40
2019-03-26T15:52:18.538Z,13.73
2019-03-26T15:54:47.398Z,9.57
2019-03-26T15:57:16.293Z,10.33
2019-03-26T15:59:45.143Z,8.07
2019-03-26T16:02:14.078Z,8.53
2019-03-26T16:04:42.991Z,8.63
2019-03-26T16:07:11.845Z,7.83
2019-03-26T16:09:40.696Z,8.13
2019-03-26T16:12:09.602Z,9.30
2019-03-26T16:14:38.453Z,16.10
2019-03-26T16:17:07.299Z,19.13
2019-03-26T16:19:36.696Z,19.90
2019-03-26T16:22:05.710Z,23.70
2019-03-26T16:24:34.571Z,15.73
2019-03-26T16:27:03.516Z,16.70
2019-03-26T16:29:32.354Z,12.73
2019-03-26T16:32:01.206Z,30.93
2019-03-26T16:34:30.099Z,16.73
2019-03-26T16:37:00.077Z,27.47
2019-03-26T16:39:29.131Z,16.53
2019-03-26T16:41:58.039Z,31.73
2019-03-26T16:44:26.896Z,13.20
2019-03-26T16:46:55.787Z,18.07
2019-03-26T16:49:24.812Z,20.47
2019-03-26T16:51:53.720Z,13.00
2019-03-26T16:54:22.567Z,14.47
2019-03-26T16:56:51.490Z,16.17
2019-03-26T16:59:20.322Z,13.30
2019-03-26T17:01:49.188Z,14.93
2019-03-26T17:04:18.070Z,18.33
2019-03-26T17:06:47.309Z,17.83
2019-03-26T17:09:16.150Z,16.53
2019-03-26T17:11:45.072Z,17.13
2019-03-26T17:14:13.924Z,17.97
2019-03-26T17:16:42.790Z,15.70
2019-03-26T17:19:11.685Z,16.73
2019-03-26T17:21:40.550Z,16.20
2019-03-26T17:24:09.406Z,16.30
2019-03-26T17:26:38.303Z,20.10
2019-03-26T17:29:07.165Z,31.17
2019-03-26T17:31:36.036Z,45.30
2019-03-26T17:34:05.039Z,67.07
2019-03-26T17:36:33.860Z,182.07
2019-03-26T17:39:02.697Z,176.50
2019-03-26T17:41:31.597Z,174.90
2019-03-26T17:44:00.453Z,163.20
2019-03-26T17:46:29.702Z,194.97
2019-03-26T17:48:58.635Z,269.10
2019-03-26T17:51:27.503Z,341.93
2019-03-26T17:53:56.365Z,343.93
2019-03-26T17:56:25.300Z,355.87
2019-03-26T17:58:54.163Z,355.10
2019-03-26T18:01:23.017Z,328.67
2019-03-26T18:03:52.525Z,234.57
2019-03-26T18:06:21.407Z,173.27
2019-03-26T18:08:50.276Z,325.60
2019-03-26T18:11:19.186Z,294.40
2019-03-26T18:13:48.041Z,266.83
2019-03-26T18:16:16.867Z,290.63
2019-03-26T18:18:45.979Z,206.47
2019-03-26T18:21:14.834Z,164.70
2019-03-26T18:23:43.694Z,183.37
2019-03-26T18:26:12.582Z,255.53
2019-03-26T18:28:41.427Z,264.47
2019-03-26T18:31:10.279Z,258.93
2019-03-26T18:33:39.176Z,187.77
2019-03-26T18:36:08.041Z,229.17
2019-03-26T18:38:36.915Z,226.23
2019-03-26T18:41:05.927Z,345.53
2019-03-26T18:43:34.782Z,325.80
2019-03-26T18:46:03.642Z,236.30
2019-03-26T18:48:32.526Z,212.67
2019-03-26T18:51:01.488Z,192.97
2019-03-26T18:53:30.336Z,217.57
2019-03-26T18:55:59.265Z,229.43
2019-03-26T18:58:28.111Z,209.13
2019-03-26T19:00:57.465Z,223.63
2019-03-26T19:03:26.534Z,221.00
2019-03-26T19:05:55.407Z,215.63
2019-03-26T19:08:24.267Z,200.43
2019-03-26T19:10:53.183Z,194.63
2019-03-26T19:13:22.034Z,196.70
2019-03-26T19:15:50.881Z,196.23
2019-03-26T19:18:19.785Z,174.90
2019-03-26T19:21:01.007Z,155.97
2019-03-26T19:23:19.151Z,151.60
2019-03-26T19:25:48.171Z,148.50
2019-03-26T19:28:17.578Z,174.80
2019-03-26T19:30:46.439Z,177.97
2019-03-26T19:33:15.344Z,164.17
2019-03-26T19:35:44.193Z,124.17
2019-03-26T19:38:13.049Z,143.47
2019-03-26T19:40:41.947Z,127.37
2019-03-26T19:43:11.744Z,141.30
2019-03-26T19:45:40.840Z,134.47
2019-03-26T19:48:09.754Z,169.73
2019-03-26T19:50:38.608Z,185.83
2019-03-26T19:53:07.465Z,168.03
2019-03-26T19:55:36.375Z,195.03
2019-03-26T19:58:05.260Z,234.33
2019-03-26T20:00:34.184Z,233.00
2019-03-26T20:03:03.728Z,283.53
2019-03-26T20:05:35.219Z,286.50
2019-03-26T20:08:03.078Z,243.20
2019-03-26T20:10:32.007Z,240.83
2019-03-26T20:13:00.889Z,211.30
2019-03-26T20:15:29.805Z,207.53
2019-03-26T20:17:58.703Z,200.20
2019-03-26T20:20:27.558Z,198.77
2019-03-26T20:22:56.412Z,146.07
2019-03-26T20:25:25.329Z,133.73
2019-03-26T20:27:54.180Z,136.43
2019-03-26T20:30:23.559Z,155.30
2019-03-26T20:32:52.566Z,160.87
2019-03-26T20:35:21.425Z,165.80
2019-03-26T20:37:50.272Z,168.43
2019-03-26T20:40:19.276Z,289.23
2019-03-26T20:42:48.121Z,221.73
2019-03-26T20:45:18.616Z,200.10
2019-03-26T20:47:47.518Z,241.13
2019-03-26T20:50:16.466Z,184.97
2019-03-26T20:52:45.330Z,184.93
2019-03-26T20:55:15.840Z,191.97
2019-03-26T20:57:45.297Z,313.87
2019-03-26T21:00:17.097Z,237.37
2019-03-26T21:02:46.024Z,231.47
2019-03-26T21:05:14.903Z,245.83
2019-03-26T21:07:43.804Z,180.80
2019-03-26T21:10:12.681Z,190.90
2019-03-26T21:12:41.622Z,182.97
2019-03-26T21:15:10.927Z,186.43
2019-03-26T21:17:39.883Z,220.63
2019-03-26T21:20:10.328Z,252.13
2019-03-26T21:22:39.183Z,251.83
2019-03-26T21:25:09.685Z,223.73
2019-03-26T21:27:38.545Z,205.73
2019-03-26T21:30:15.110Z,228.47
2019-03-26T21:32:40.848Z,226.97
2019-03-26T21:35:10.112Z,276.77
2019-03-26T21:37:39.474Z,259.63
2019-03-26T21:40:10.168Z,258.80
2019-03-26T21:42:39.028Z,230.23
2019-03-26T21:45:10.259Z,205.93
2019-03-26T21:47:39.143Z,221.73
2019-03-26T21:50:08.502Z,235.40
2019-03-26T21:52:37.373Z,238.30
2019-03-26T21:55:08.709Z,295.37
2019-03-26T21:57:38.392Z,291.13
2019-03-26T22:00:09.134Z,322.17
2019-03-26T22:02:38.036Z,348.80
2019-03-26T22:05:10.311Z,364.70
2019-03-26T22:07:39.180Z,285.03
2019-03-26T22:10:08.900Z,287.73
2019-03-26T22:12:42.563Z,301.47
2019-03-26T22:15:14.069Z,303.73
2019-03-26T22:17:43.934Z,300.37
2019-03-26T22:20:19.117Z,306.07
2019-03-26T22:22:51.117Z,320.87
2019-03-26T22:25:21.511Z,306.20
2019-03-26T22:27:50.452Z,259.33
2019-03-26T22:30:19.601Z,249.10
2019-03-26T22:32:48.443Z,247.67
2019-03-26T22:35:17.579Z,172.47
2019-03-26T22:37:46.442Z,123.10
2019-03-26T22:40:15.398Z,76.73
2019-03-26T22:42:44.297Z,77.10
2019-03-26T22:45:13.449Z,43.40
2019-03-26T22:47:42.291Z,19.47
2019-03-26T22:50:11.950Z,19.60
2019-03-26T22:52:40.962Z,15.90
2019-03-26T22:55:10.822Z,16.47
2019-03-26T22:57:39.726Z,15.37
2019-03-26T23:00:16.034Z,12.07
2019-03-26T23:02:45.116Z,13.43
2019-03-26T23:05:18.660Z,12.80
2019-03-26T23:07:47.527Z,12.03
2019-03-26T23:10:16.950Z,12.80
2019-03-26T23:12:45.815Z,12.63
2019-03-26T23:15:20.283Z,12.07
2019-03-26T23:17:49.352Z,11.67
2019-03-26T23:20:18.304Z,14.87
2019-03-26T23:22:47.502Z,15.13
2019-03-26T23:25:16.761Z,12.80
2019-03-26T23:27:45.600Z,13.40
2019-03-26T23:30:14.942Z,15.60
2019-03-26T23:32:43.784Z,13.03
2019-03-26T23:35:12.828Z,11.80
2019-03-26T23:37:41.721Z,14.43
2019-03-26T23:40:10.968Z,17.43
2019-03-26T23:42:39.818Z,15.63
2019-03-26T23:45:09.095Z,17.50
2019-03-26T23:47:37.948Z,18.97
2019-03-26T23:50:08.099Z,16.43
2019-03-26T23:52:37.517Z,17.50
2019-03-26T23:55:09.460Z,20.93
2019-03-26T23:57:38.311Z,20.70
